METAR Data
IDs: Format: Raw Decoded Include TAF

Data at: 0013 UTC 30 May 2020

METAR for:KCSQ (Creston Muni, IA, US)
Text:KCSQ 292355Z AUTO 01006KT 10SM CLR 22/07 A3014 RMK AO2
Temperature: 22.0°C ( 72°F)
Dewpoint: 7.0°C ( 45°F) [RH = 38%]
Pressure (altimeter):30.14 inches Hg (1020.7 mb)
Winds:from the N (10 degrees) at 7 MPH (6 knots; 3.1 m/s)
Visibility:10 or more sm (16+ km)
Ceiling:at least 12,000 feet AGL
Clouds:sky clear below 12,000 feet AGL
QC Flag:automated observation with no human augmentation